Time;durP1;ratioP1;P1;durP2;ratioP2;P2;SDS_P1;SDS_P2;PMS_P1;PMS_P2;Temp;Humidity;BMP_temperature;BMP_pressure;BME280_temperature;BME280_humidity;BME280_pressure;Samples;Min_cycle;Max_cycle;Signal;HPM_P1;HPM_P2
2022/06/11 00:00:50;;;;;;;9.63;6.17;;;15.70;97.30;;;;;;5061920;28;20441;-83
2022/06/11 00:03:19;;;;;;;9.90;6.03;;;15.60;97.30;;;;;;5062381;28;20435;-82
2022/06/11 00:05:50;;;;;;;9.67;6.10;;;15.60;97.30;;;;;;5065640;28;20418;-82
2022/06/11 00:08:19;;;;;;;11.30;5.73;;;15.50;97.30;;;;;;5063744;28;20496;-82
2022/06/11 00:10:47;;;;;;;8.00;6.13;;;15.50;97.30;;;;;;5065586;28;20446;-81
2022/06/11 00:13:16;;;;;;;10.60;6.53;;;15.50;97.30;;;;;;5065230;28;20426;-82
2022/06/11 00:15:46;;;;;;;10.50;5.57;;;15.40;97.30;;;;;;5064485;28;20419;-82
2022/06/11 00:18:13;;;;;;;11.70;6.30;;;15.40;97.30;;;;;;5063353;28;20426;-82
2022/06/11 00:20:41;;;;;;;9.53;6.13;;;15.30;97.30;;;;;;5064015;28;20418;-82
2022/06/11 00:23:10;;;;;;;10.77;5.80;;;15.30;97.30;;;;;;5063808;28;20441;-81
2022/06/11 00:25:39;;;;;;;10.33;6.67;;;15.20;97.30;;;;;;5064164;28;20422;-81
2022/06/11 00:28:11;;;;;;;9.43;6.27;;;15.20;97.30;;;;;;5065314;28;20464;-81
2022/06/11 00:30:38;;;;;;;8.13;6.20;;;15.20;97.30;;;;;;5066301;28;20426;-82
2022/06/11 00:33:08;;;;;;;9.53;6.53;;;15.10;97.30;;;;;;5064841;28;20454;-81
2022/06/11 00:35:39;;;;;;;11.60;7.33;;;15.10;97.30;;;;;;5064796;28;20420;-80
2022/06/11 00:38:08;;;;;;;9.80;6.90;;;15.00;97.30;;;;;;5063921;28;20442;-80
2022/06/11 00:40:38;;;;;;;12.23;7.10;;;15.00;97.30;;;;;;5064949;28;20415;-80
2022/06/11 00:43:06;;;;;;;11.57;6.77;;;15.00;97.30;;;;;;5063025;28;20453;-80
2022/06/11 00:45:45;;;;;;;10.90;7.33;;;15.00;97.30;;;;;;5063119;28;20521;-81
2022/06/11 00:48:27;;;;;;;9.90;7.67;;;14.90;97.30;;;;;;5062967;28;20458;-80
2022/06/11 00:51:15;;;;;;;13.17;7.87;;;14.90;97.30;;;;;;5062802;28;20425;-80
2022/06/11 00:53:59;;;;;;;18.57;7.47;;;14.90;97.30;;;;;;5062129;28;21054;-80
2022/06/11 00:56:30;;;;;;;15.50;8.60;;;14.80;97.30;;;;;;5061827;28;20534;-80
2022/06/11 00:59:00;;;;;;;15.03;9.60;;;14.80;97.30;;;;;;5062910;28;20422;-81
2022/06/11 01:01:39;;;;;;;13.53;9.20;;;14.80;97.30;;;;;;5063217;28;20908;-80
2022/06/11 01:04:39;;;;;;;13.90;8.20;;;14.80;97.30;;;;;;5063956;28;20436;-79
2022/06/11 01:07:32;;;;;;;12.13;8.37;;;14.80;97.30;;;;;;5063190;28;20466;-80
2022/06/11 01:10:12;;;;;;;14.33;9.57;;;14.80;97.30;;;;;;5062631;28;20919;-81
2022/06/11 01:13:01;;;;;;;13.27;8.63;;;14.70;97.30;;;;;;5063271;28;20406;-80
2022/06/11 01:15:40;;;;;;;13.93;9.07;;;14.70;97.30;;;;;;5063396;28;20429;-81
2022/06/11 01:18:31;;;;;;;14.10;8.83;;;14.70;97.30;;;;;;5046282;28;20530;-81
2022/06/11 01:21:50;;;;;;;21.47;10.17;;;14.70;97.30;;;;;;5063545;28;20473;-81
2022/06/11 01:24:40;;;;;;;9.63;6.60;;;14.60;97.30;;;;;;5062935;28;20410;-80
2022/06/11 01:27:40;;;;;;;12.60;7.10;;;14.60;97.30;;;;;;5064401;28;20541;-79
2022/06/11 01:30:27;;;;;;;9.77;7.03;;;14.60;97.30;;;;;;5063682;28;20521;-80
2022/06/11 01:38:15;;;;;;;15.33;9.27;;;14.40;97.30;;;;;;5056500;28;20486;-82
2022/06/11 01:41:02;;;;;;;12.37;7.97;;;14.40;97.30;;;;;;5041861;28;20635;-82
2022/06/11 01:43:40;;;;;;;15.47;9.00;;;14.40;97.30;;;;;;5042129;28;20415;-82
2022/06/11 01:46:31;;;;;;;14.27;8.20;;;14.30;97.30;;;;;;5042047;28;20434;-81
2022/06/11 01:49:09;;;;;;;11.93;7.97;;;14.30;97.30;;;;;;5041517;28;20452;-83
2022/06/11 01:52:15;;;;;;;12.23;7.83;;;14.20;97.30;;;;;;5041677;28;20497;-82
2022/06/11 01:55:00;;;;;;;15.70;7.83;;;14.20;97.30;;;;;;5041879;28;20406;-81
2022/06/11 01:57:38;;;;;;;11.83;8.20;;;14.20;97.30;;;;;;5041605;28;20438;-82
2022/06/11 02:00:39;;;;;;;13.57;8.67;;;14.20;97.30;;;;;;5041831;28;20419;-82
2022/06/11 02:03:35;;;;;;;15.07;9.17;;;14.10;97.30;;;;;;5042593;28;20825;-79
2022/06/11 02:06:24;;;;;;;13.50;8.83;;;14.10;97.30;;;;;;5042184;28;20414;-79
2022/06/11 02:09:14;;;;;;;18.07;8.73;;;14.10;97.30;;;;;;5042438;28;20465;-79
2022/06/11 02:11:49;;;;;;;18.83;9.57;;;14.10;97.30;;;;;;5093084;22;21017;-80
2022/06/11 02:14:18;;;;;;;14.23;9.07;;;14.00;97.30;;;;;;5067165;28;20971;-82
2022/06/11 02:16:47;;;;;;;17.00;9.13;;;14.00;97.30;;;;;;5065597;28;20444;-80
2022/06/11 02:19:20;;;;;;;14.80;9.30;;;14.00;97.30;;;;;;5065914;28;20452;-80
2022/06/11 02:21:53;;;;;;;14.30;9.67;;;14.00;97.30;;;;;;5065446;28;20432;-81
2022/06/11 02:24:34;;;;;;;14.03;8.87;;;13.90;97.30;;;;;;5065163;28;20461;-80
2022/06/11 02:27:05;;;;;;;19.07;10.53;;;13.90;97.30;;;;;;5065757;28;20461;-81
2022/06/11 02:29:33;;;;;;;15.83;9.50;;;13.90;97.30;;;;;;5065767;28;20448;-81
2022/06/11 02:32:07;;;;;;;16.50;10.50;;;13.90;97.30;;;;;;5066054;28;20914;-80
2022/06/11 02:34:43;;;;;;;15.20;10.10;;;13.80;97.30;;;;;;5063542;28;20429;-80
2022/06/11 02:37:20;;;;;;;16.67;8.60;;;13.80;97.30;;;;;;5065282;28;20460;-80
2022/06/11 02:39:50;;;;;;;12.33;9.60;;;13.80;97.30;;;;;;5064776;28;20488;-80
2022/06/11 02:42:22;;;;;;;14.37;9.43;;;13.80;97.30;;;;;;5064965;28;20860;-80
2022/06/11 02:44:50;;;;;;;14.07;8.90;;;13.80;97.30;;;;;;5047451;28;20450;-80
2022/06/11 02:47:21;;;;;;;12.87;8.13;;;13.70;97.30;;;;;;5043690;28;20466;-80
2022/06/11 02:49:48;;;;;;;15.23;8.23;;;13.70;97.30;;;;;;5044851;28;20460;-80
2022/06/11 02:52:20;;;;;;;12.23;8.57;;;13.70;97.30;;;;;;5044781;28;20415;-80
2022/06/11 02:54:49;;;;;;;17.90;8.93;;;13.70;97.30;;;;;;5045273;28;20409;-80
2022/06/11 02:57:21;;;;;;;14.70;8.80;;;13.60;97.30;;;;;;5045120;28;20535;-80
2022/06/11 02:59:50;;;;;;;16.00;8.73;;;13.60;97.30;;;;;;5045029;28;20494;-80
2022/06/11 03:02:20;;;;;;;14.70;8.90;;;13.60;97.30;;;;;;5044281;28;20419;-80
2022/06/11 03:04:47;;;;;;;13.60;9.30;;;13.60;97.30;;;;;;5046674;28;20414;-81
2022/06/11 03:07:16;;;;;;;14.60;8.80;;;13.50;97.30;;;;;;5046377;28;21007;-81
2022/06/11 03:09:44;;;;;;;11.37;8.03;;;13.50;97.30;;;;;;5046108;28;20927;-79
2022/06/11 03:12:13;;;;;;;11.30;8.40;;;13.50;97.30;;;;;;5062047;28;20450;-79
2022/06/11 03:14:43;;;;;;;17.60;8.10;;;13.50;97.30;;;;;;5043980;28;20402;-79
2022/06/11 03:17:16;;;;;;;12.07;7.43;;;13.50;97.30;;;;;;5044104;28;20442;-80
2022/06/11 03:19:42;;;;;;;11.47;8.03;;;13.40;97.30;;;;;;5044937;28;20489;-81
2022/06/11 03:22:09;;;;;;;11.57;7.40;;;13.40;97.30;;;;;;5046390;28;20425;-81
2022/06/11 03:24:36;;;;;;;12.67;7.27;;;13.40;97.30;;;;;;5043710;28;20418;-80
2022/06/11 03:27:04;;;;;;;11.60;7.80;;;13.40;97.30;;;;;;5041717;28;20486;-82
2022/06/11 03:29:31;;;;;;;13.50;8.20;;;13.40;97.30;;;;;;5040536;28;21010;-80
2022/06/11 03:31:57;;;;;;;12.23;7.57;;;13.40;97.30;;;;;;5041577;28;20430;-79
2022/06/11 03:34:23;;;;;;;11.60;7.67;;;13.40;97.30;;;;;;5039103;28;20415;-80
2022/06/11 03:36:51;;;;;;;13.20;8.13;;;13.40;97.30;;;;;;5039452;28;20187;-80
2022/06/11 03:39:18;;;;;;;14.43;8.43;;;13.40;97.30;;;;;;5038867;28;20176;-80
2022/06/11 03:41:44;;;;;;;13.77;8.20;;;13.40;97.30;;;;;;5039721;28;20410;-80
2022/06/11 03:44:11;;;;;;;11.20;7.60;;;13.50;97.30;;;;;;5038743;28;20822;-81
2022/06/11 03:46:36;;;;;;;14.43;7.60;;;13.50;97.30;;;;;;5037842;28;20452;-79
2022/06/11 03:49:43;;;;;;;12.23;8.53;;;13.50;97.30;;;;;;5035685;28;21050;-81
2022/06/11 03:52:13;;;;;;;12.30;8.33;;;13.60;97.30;;;;;;5036509;28;20675;-80
2022/06/11 03:55:23;;;;;;;16.77;8.43;;;13.60;97.30;;;;;;5039399;28;20406;-80
2022/06/11 04:03:31;;;;;;;13.13;8.20;;;13.80;97.30;;;;;;5094535;28;20482;-82
2022/06/11 04:05:59;;;;;;;11.17;7.70;;;13.90;97.30;;;;;;5097025;28;20413;-80
2022/06/11 04:08:26;;;;;;;12.30;8.87;;;14.00;97.30;;;;;;5098289;28;20459;-79
2022/06/11 04:10:56;;;;;;;12.20;8.13;;;14.00;97.30;;;;;;5099798;28;20412;-80
2022/06/11 04:13:25;;;;;;;13.20;8.33;;;14.10;97.30;;;;;;5100935;28;20426;-80
2022/06/11 04:15:51;;;;;;;16.13;9.10;;;14.10;97.30;;;;;;5100279;28;20505;-81
2022/06/11 04:18:34;;;;;;;10.43;7.60;;;14.10;97.30;;;;;;5098183;28;20455;-81
2022/06/11 04:21:06;;;;;;;20.50;8.03;;;14.20;97.30;;;;;;5096665;28;20474;-81
2022/06/11 04:23:40;;;;;;;12.13;8.00;;;14.20;97.30;;;;;;5099108;28;20411;-79
2022/06/11 04:26:13;;;;;;;12.70;7.70;;;14.30;97.30;;;;;;5097722;28;20467;-81
2022/06/11 04:28:42;;;;;;;14.10;7.97;;;14.40;97.30;;;;;;5098739;28;20504;-80
2022/06/11 04:31:10;;;;;;;14.37;7.60;;;14.40;97.30;;;;;;5095289;28;20952;-81
2022/06/11 04:33:36;;;;;;;12.83;7.40;;;14.50;97.30;;;;;;5095613;28;20465;-81
2022/06/11 04:36:05;;;;;;;11.10;7.80;;;14.50;97.30;;;;;;5095036;28;20464;-81
2022/06/11 04:38:31;;;;;;;14.17;7.83;;;14.60;97.30;;;;;;5095752;28;20929;-81
2022/06/11 04:40:56;;;;;;;17.17;7.80;;;14.60;97.30;;;;;;5095431;28;20428;-80
2022/06/11 04:43:22;;;;;;;9.47;7.00;;;14.70;97.30;;;;;;5096795;28;20186;-81
2022/06/11 04:45:48;;;;;;;15.03;8.73;;;14.80;97.30;;;;;;5095862;28;20213;-80
2022/06/11 04:48:13;;;;;;;16.90;7.73;;;14.80;97.30;;;;;;5095149;28;20798;-81
2022/06/11 04:50:39;;;;;;;14.83;7.80;;;14.90;97.30;;;;;;5094743;28;20198;-80
2022/06/11 04:53:05;;;;;;;12.80;7.43;;;15.00;97.30;;;;;;5096827;28;20187;-81
2022/06/11 04:55:34;;;;;;;13.13;7.90;;;15.00;97.30;;;;;;5096934;28;20412;-81
2022/06/11 04:58:04;;;;;;;9.60;7.37;;;15.00;97.30;;;;;;5095483;28;20897;-82
2022/06/11 05:00:54;;;;;;;10.20;7.40;;;15.10;97.30;;;;;;5101348;28;20893;-82
2022/06/11 05:03:24;;;;;;;16.70;8.03;;;15.20;97.30;;;;;;5097544;28;20463;-82
2022/06/11 05:06:24;;;;;;;10.97;7.10;;;15.20;97.30;;;;;;5098915;28;20425;-82
2022/06/11 05:08:54;;;;;;;12.97;7.20;;;15.20;97.30;;;;;;5097443;28;20493;-80
2022/06/11 05:15:12;;;;;;;9.60;7.10;;;15.30;97.30;;;;;;5087186;28;20409;-82
2022/06/11 05:17:38;;;;;;;14.27;6.93;;;15.30;97.30;;;;;;5096785;28;20994;-80
2022/06/11 05:20:06;;;;;;;11.10;7.30;;;15.40;97.30;;;;;;5099990;28;20670;-81
2022/06/11 05:22:32;;;;;;;11.60;6.20;;;15.40;97.30;;;;;;5100463;28;20440;-82
2022/06/11 05:25:00;;;;;;;10.33;6.60;;;15.50;97.30;;;;;;5101719;28;20774;-81
2022/06/11 05:27:28;;;;;;;11.63;7.27;;;15.60;97.30;;;;;;5100117;28;20627;-81
2022/06/11 05:29:59;;;;;;;14.40;6.10;;;15.70;97.30;;;;;;5102707;28;20416;-81
2022/06/11 05:32:29;;;;;;;8.77;6.13;;;15.80;97.30;;;;;;5102340;28;20424;-81
2022/06/11 05:34:58;;;;;;;11.53;6.97;;;15.90;97.30;;;;;;5103003;28;20478;-83
2022/06/11 05:37:26;;;;;;;10.40;5.70;;;16.00;97.30;;;;;;5103276;28;20444;-83
2022/06/11 05:39:53;;;;;;;7.20;5.90;;;16.10;97.30;;;;;;5102557;28;20435;-83
2022/06/11 05:42:21;;;;;;;11.20;5.87;;;16.20;97.30;;;;;;5098623;28;20480;-83
2022/06/11 05:44:48;;;;;;;8.63;5.80;;;16.20;97.30;;;;;;5102170;28;20416;-84
2022/06/11 05:47:18;;;;;;;8.23;5.83;;;16.30;97.30;;;;;;5100975;28;20973;-82
2022/06/11 05:49:51;;;;;;;8.27;6.17;;;16.40;97.30;;;;;;5101333;28;20409;-82
2022/06/11 05:52:22;;;;;;;6.00;5.40;;;16.40;97.30;;;;;;5100651;28;20427;-82
2022/06/11 05:54:49;;;;;;;8.57;6.57;;;16.50;97.30;;;;;;5099400;28;20885;-82
2022/06/11 05:57:20;;;;;;;6.80;5.90;;;16.60;97.30;;;;;;5102481;28;20447;-82
2022/06/11 05:59:52;;;;;;;6.10;5.77;;;16.60;97.30;;;;;;5099817;28;20421;-81
2022/06/11 06:02:21;;;;;;;9.00;5.43;;;16.70;97.30;;;;;;5099997;28;20460;-82
2022/06/11 06:04:46;;;;;;;13.20;5.77;;;16.80;97.30;;;;;;5099383;28;20425;-82
2022/06/11 06:07:12;;;;;;;11.03;5.70;;;16.90;97.30;;;;;;5099781;28;21007;-82
2022/06/11 06:09:38;;;;;;;9.03;5.40;;;17.00;97.30;;;;;;5097963;28;20170;-82
2022/06/11 06:12:05;;;;;;;12.03;5.00;;;17.00;97.30;;;;;;5098238;28;20666;-83
2022/06/11 06:14:30;;;;;;;8.43;4.87;;;17.10;97.30;;;;;;5097654;28;20192;-82
2022/06/11 06:16:56;;;;;;;7.73;5.17;;;17.20;97.30;;;;;;5099935;28;20432;-82
2022/06/11 06:19:22;;;;;;;7.43;4.90;;;17.40;97.30;;;;;;5099994;28;20175;-82
2022/06/11 06:21:47;;;;;;;7.50;4.50;;;17.40;97.30;;;;;;5098604;28;20265;-82
2022/06/11 06:24:13;;;;;;;15.20;5.23;;;17.60;97.30;;;;;;5098984;28;20175;-82
2022/06/11 06:26:40;;;;;;;7.13;4.87;;;17.70;97.30;;;;;;5097470;28;20205;-82
2022/06/11 06:29:06;;;;;;;8.90;4.20;;;17.80;97.30;;;;;;5097876;28;20995;-83
2022/06/11 06:31:32;;;;;;;7.40;4.20;;;17.90;97.30;;;;;;5098627;28;20439;-83
2022/06/11 06:34:00;;;;;;;6.10;3.80;;;18.10;97.30;;;;;;5099360;28;20408;-82
2022/06/11 06:36:31;;;;;;;6.60;4.10;;;18.20;97.30;;;;;;5098061;28;20436;-82
2022/06/11 06:38:58;;;;;;;9.93;4.33;;;18.30;97.30;;;;;;5099269;28;20432;-82
2022/06/11 06:41:24;;;;;;;6.10;3.83;;;18.40;97.30;;;;;;5099851;28;21102;-81
2022/06/11 06:43:50;;;;;;;7.03;4.53;;;18.50;97.30;;;;;;5098119;28;20412;-82
2022/06/11 06:46:17;;;;;;;7.77;3.97;;;18.70;97.30;;;;;;5097448;28;20444;-82
2022/06/11 06:48:44;;;;;;;9.40;3.83;;;18.80;97.30;;;;;;5097190;28;20453;-82
2022/06/11 06:51:11;;;;;;;11.27;3.70;;;18.90;97.20;;;;;;5098118;28;20460;-80
2022/06/11 06:53:39;;;;;;;10.53;4.37;;;19.10;96.50;;;;;;5097701;28;20498;-81
2022/06/11 06:56:05;;;;;;;7.53;3.90;;;19.20;96.40;;;;;;5093657;28;20413;-80
2022/06/11 06:58:36;;;;;;;10.00;3.87;;;19.40;96.00;;;;;;5094439;28;20415;-80
2022/06/11 07:01:08;;;;;;;3.63;3.03;;;19.50;96.30;;;;;;5094715;28;20444;-80
2022/06/11 07:03:33;;;;;;;5.10;3.10;;;19.60;95.60;;;;;;5093445;28;20811;-80
2022/06/11 07:06:02;;;;;;;7.60;3.30;;;19.70;94.80;;;;;;5093974;28;20408;-81
2022/06/11 07:08:28;;;;;;;4.97;3.17;;;19.80;93.80;;;;;;5094425;28;20262;-80
2022/06/11 07:10:54;;;;;;;7.70;3.50;;;19.90;93.30;;;;;;5095120;28;20440;-82
2022/06/11 07:13:21;;;;;;;9.37;3.50;;;20.10;92.10;;;;;;5096390;28;20167;-81
2022/06/11 07:15:50;;;;;;;5.60;3.50;;;20.20;92.00;;;;;;5096151;28;20440;-81
2022/06/11 07:18:25;;;;;;;5.70;3.00;;;20.40;92.00;;;;;;5096367;28;20469;-81
2022/06/11 07:20:55;;;;;;;9.27;4.13;;;20.60;91.40;;;;;;5097272;28;20489;-82
2022/06/11 07:23:25;;;;;;;7.73;3.17;;;20.70;92.30;;;;;;5096750;28;20504;-81
2022/06/11 07:25:54;;;;;;;4.23;3.27;;;20.80;90.60;;;;;;5096553;28;20477;-81
2022/06/11 07:28:28;;;;;;;5.90;3.03;;;20.90;91.10;;;;;;5096779;28;20460;-81
2022/06/11 07:30:54;;;;;;;7.47;3.27;;;21.10;90.30;;;;;;5092220;28;20428;-81
2022/06/11 07:33:25;;;;;;;4.10;3.37;;;21.20;89.80;;;;;;5091541;28;20408;-82
2022/06/11 07:35:51;;;;;;;3.90;3.40;;;21.40;88.30;;;;;;5091920;28;20496;-82
2022/06/11 07:38:19;;;;;;;3.63;3.27;;;21.60;88.30;;;;;;5091839;28;20416;-81
2022/06/11 07:40:44;;;;;;;6.13;2.90;;;21.70;87.90;;;;;;5092268;28;20417;-81
2022/06/11 07:43:10;;;;;;;5.00;3.43;;;21.80;87.90;;;;;;5092414;28;20857;-81
2022/06/11 07:45:38;;;;;;;4.90;3.00;;;22.00;87.40;;;;;;5091444;28;20183;-81
2022/06/11 07:48:04;;;;;;;5.97;2.80;;;22.10;88.40;;;;;;5091381;28;20206;-81
2022/06/11 07:50:43;;;;;;;6.40;3.07;;;22.20;88.10;;;;;;5091532;28;20417;-82
2022/06/11 07:53:09;;;;;;;5.20;2.93;;;22.20;87.40;;;;;;5090991;28;20929;-82
2022/06/11 07:55:37;;;;;;;6.13;2.70;;;22.40;85.30;;;;;;5090375;28;20432;-83
2022/06/11 07:58:05;;;;;;;3.57;2.43;;;22.50;83.60;;;;;;5091699;28;20697;-82
2022/06/11 08:00:35;;;;;;;2.90;2.70;;;22.60;84.30;;;;;;5083844;28;20516;-82
2022/06/11 08:03:02;;;;;;;3.80;2.93;;;22.70;84.00;;;;;;5070481;28;20468;-82
2022/06/11 08:05:28;;;;;;;4.83;2.40;;;22.90;84.00;;;;;;5069635;28;20421;-82
2022/06/11 08:07:54;;;;;;;4.47;3.10;;;23.00;82.80;;;;;;5070809;28;21043;-82
2022/06/11 08:10:23;;;;;;;5.67;2.63;;;23.10;82.00;;;;;;5070177;28;20175;-83
2022/06/11 08:12:49;;;;;;;3.73;2.83;;;23.20;82.70;;;;;;5071383;28;20218;-82
2022/06/11 08:15:15;;;;;;;7.33;2.93;;;23.30;83.10;;;;;;5070801;28;20406;-82
2022/06/11 08:17:41;;;;;;;5.70;3.00;;;23.40;82.30;;;;;;5071142;28;20652;-82
2022/06/11 08:20:08;;;;;;;8.73;2.80;;;23.50;82.60;;;;;;5070444;28;20417;-82
2022/06/11 08:22:34;;;;;;;11.80;2.80;;;23.60;82.70;;;;;;5082484;28;20448;-82
2022/06/11 08:25:01;;;;;;;6.17;2.33;;;23.70;81.00;;;;;;5090576;28;20421;-82
2022/06/11 08:27:26;;;;;;;7.00;2.70;;;23.80;81.60;;;;;;5089599;28;20487;-82
2022/06/11 08:29:52;;;;;;;7.70;2.60;;;23.80;79.90;;;;;;5093588;28;20733;-81
2022/06/11 08:32:18;;;;;;;6.40;2.83;;;24.00;79.10;;;;;;5090695;28;20193;-82
2022/06/11 08:34:46;;;;;;;2.53;2.10;;;24.00;80.10;;;;;;5098772;28;20186;-82
2022/06/11 08:37:12;;;;;;;3.47;2.10;;;24.10;80.00;;;;;;5097373;28;20254;-81
2022/06/11 08:39:38;;;;;;;4.03;2.80;;;24.10;79.60;;;;;;5097540;28;20485;-81
2022/06/11 08:42:04;;;;;;;3.23;2.20;;;24.20;79.80;;;;;;5094313;28;20424;-82
2022/06/11 08:44:35;;;;;;;4.03;2.30;;;24.20;80.20;;;;;;5091025;28;20228;-82
2022/06/11 08:47:06;;;;;;;3.80;2.20;;;24.30;80.10;;;;;;5091444;28;20436;-83
2022/06/11 08:49:42;;;;;;;5.40;3.00;;;24.30;78.00;;;;;;5086648;28;20511;-83
2022/06/11 08:52:16;;;;;;;3.90;2.20;;;24.40;78.50;;;;;;5087861;28;20825;-83
2022/06/11 08:54:45;;;;;;;2.57;2.30;;;24.50;78.70;;;;;;5087015;28;20416;-83
2022/06/11 08:57:40;;;;;;;3.93;2.00;;;24.60;78.50;;;;;;5088134;28;20432;-83
2022/06/11 09:00:29;;;;;;;2.67;1.90;;;24.70;78.60;;;;;;5067630;28;20460;-83
2022/06/11 09:03:10;;;;;;;4.90;2.30;;;24.80;78.60;;;;;;5075332;28;20460;-83
2022/06/11 09:05:54;;;;;;;4.67;2.50;;;24.80;77.90;;;;;;5087790;28;20459;-82
2022/06/11 09:08:31;;;;;;;3.70;2.37;;;24.90;79.10;;;;;;5088795;28;20542;-83
2022/06/11 09:11:21;;;;;;;6.63;2.23;;;25.00;78.70;;;;;;5089322;28;20409;-83
2022/06/11 09:14:22;;;;;;;4.63;2.20;;;25.10;79.40;;;;;;5089305;28;20413;-82
2022/06/11 09:17:00;;;;;;;3.37;1.87;;;25.10;76.80;;;;;;5088161;28;20436;-83
2022/06/11 09:19:52;;;;;;;2.47;2.00;;;24.90;76.00;;;;;;5089414;28;20419;-82
2022/06/11 09:22:45;;;;;;;3.27;2.13;;;24.80;77.10;;;;;;5089142;28;20409;-81
2022/06/11 09:25:53;;;;;;;5.43;2.03;;;24.70;77.00;;;;;;5090019;28;20491;-82
2022/06/11 09:28:41;;;;;;;3.07;2.00;;;24.60;76.90;;;;;;5042707;28;20972;-82
2022/06/11 09:31:31;;;;;;;4.73;2.27;;;24.50;76.80;;;;;;5089277;28;20481;-83
2022/06/11 09:34:08;;;;;;;4.93;2.13;;;24.60;76.60;;;;;;5089180;28;20426;-81
2022/06/11 09:36:45;;;;;;;6.37;2.70;;;24.60;76.90;;;;;;5093132;28;20504;-81
2022/06/11 09:39:29;;;;;;;4.03;2.50;;;24.60;77.30;;;;;;5093887;28;20439;-82
2022/06/11 09:42:14;;;;;;;4.40;2.10;;;24.70;77.30;;;;;;5093513;28;20421;-81
2022/06/11 09:45:24;;;;;;;4.90;1.97;;;24.80;77.00;;;;;;5091169;28;20416;-82
2022/06/11 09:48:09;;;;;;;5.57;2.37;;;25.00;77.40;;;;;;5049278;28;21437;-82
2022/06/11 10:11:31;;;;;;;4.93;2.20;;;25.50;74.90;;;;;;5074992;28;20460;-82
2022/06/11 10:14:29;;;;;;;5.17;2.17;;;25.20;74.30;;;;;;5077515;28;20417;-83
2022/06/11 10:17:13;;;;;;;5.33;2.10;;;25.10;75.10;;;;;;5077456;28;20461;-82
2022/06/11 10:20:01;;;;;;;5.93;2.03;;;25.10;76.30;;;;;;5077072;28;20444;-82
2022/06/11 10:22:43;;;;;;;5.00;2.30;;;25.20;76.70;;;;;;5077131;28;20928;-82
2022/06/11 10:25:15;;;;;;;2.80;1.97;;;25.30;76.60;;;;;;5077934;28;20968;-82
2022/06/11 10:27:48;;;;;;;8.10;2.30;;;25.30;76.10;;;;;;5077484;28;20461;-82
2022/06/11 10:30:40;;;;;;;5.10;2.33;;;25.40;76.80;;;;;;5078126;28;20425;-83
2022/06/11 10:33:20;;;;;;;3.10;2.10;;;25.50;77.30;;;;;;5096071;28;20411;-83
2022/06/11 10:35:56;;;;;;;4.83;2.40;;;25.50;76.30;;;;;;5095444;28;20424;-82
2022/06/11 10:38:41;;;;;;;13.53;2.30;;;25.40;76.70;;;;;;5096343;28;20459;-82
2022/06/11 10:41:13;;;;;;;6.70;2.43;;;25.30;76.90;;;;;;5096040;28;20408;-82
2022/06/11 10:44:00;;;;;;;5.83;2.13;;;25.20;77.00;;;;;;5096179;28;20491;-83
2022/06/11 10:46:25;;;;;;;6.13;2.20;;;25.20;76.70;;;;;;5097090;28;20444;-82
2022/06/11 10:48:51;;;;;;;4.30;1.90;;;25.10;77.40;;;;;;5097716;28;20560;-82
2022/06/11 10:51:29;;;;;;;3.23;2.00;;;25.10;77.30;;;;;;5097379;28;20210;-82
2022/06/11 10:54:01;;;;;;;2.20;1.83;;;25.10;76.70;;;;;;5097261;28;20181;-82
2022/06/11 10:56:36;;;;;;;8.20;2.20;;;25.20;77.10;;;;;;5095621;28;20437;-84
2022/06/11 10:59:09;;;;;;;4.27;2.07;;;25.30;75.80;;;;;;5094014;28;20428;-84
2022/06/11 11:01:43;;;;;;;4.80;2.10;;;25.30;76.30;;;;;;5094851;28;20898;-83
2022/06/11 11:04:36;;;;;;;7.07;2.17;;;25.40;76.30;;;;;;5094403;28;20427;-83
2022/06/11 11:07:12;;;;;;;5.20;2.20;;;25.50;77.20;;;;;;5093425;28;20447;-82
2022/06/11 11:09:38;;;;;;;8.00;2.60;;;25.70;76.30;;;;;;5094152;28;20455;-83
2022/06/11 11:12:07;;;;;;;4.03;2.30;;;25.90;77.20;;;;;;5094379;28;21126;-83
2022/06/11 11:14:41;;;;;;;4.33;2.10;;;26.00;76.20;;;;;;5094139;28;20174;-83
2022/06/11 11:17:16;;;;;;;3.13;2.00;;;26.10;74.50;;;;;;5094773;28;20428;-83
2022/06/11 11:20:29;;;;;;;6.33;2.30;;;26.20;74.90;;;;;;5092778;28;20498;-82
2022/06/11 11:22:33;;;;;;;3.50;1.80;;;26.30;74.70;;;;;;5094288;28;20810;-86
2022/06/11 11:24:59;;;;;;;3.40;1.83;;;26.50;73.50;;;;;;5092466;28;20416;-85
2022/06/11 11:27:30;;;;;;;3.50;1.80;;;26.60;73.70;;;;;;5091398;28;20464;-85
2022/06/11 11:29:59;;;;;;;3.60;1.83;;;26.70;74.40;;;;;;5092169;28;20905;-85
2022/06/11 11:32:33;;;;;;;7.13;2.27;;;26.80;73.60;;;;;;5092067;28;20412;-85
2022/06/11 11:35:08;;;;;;;3.10;2.03;;;26.90;73.40;;;;;;5091824;28;20409;-86
2022/06/11 11:37:34;;;;;;;4.70;2.10;;;27.00;72.20;;;;;;5092822;28;20804;-85
2022/06/11 11:40:02;;;;;;;5.37;2.10;;;27.20;72.40;;;;;;5093250;28;20413;-86
2022/06/11 11:42:38;;;;;;;3.30;1.90;;;27.20;71.70;;;;;;5092488;28;20174;-85
2022/06/11 11:45:26;;;;;;;4.57;2.10;;;27.10;72.00;;;;;;5094444;28;20828;-87
2022/06/11 11:48:00;;;;;;;9.40;2.60;;;27.20;73.00;;;;;;5098059;28;20464;-85
2022/06/11 11:50:35;;;;;;;2.50;1.93;;;27.30;73.40;;;;;;5089725;28;20424;-81
2022/06/11 11:53:21;;;;;;;2.97;1.97;;;27.40;72.40;;;;;;5072902;28;20413;-81
2022/06/11 11:55:57;;;;;;;3.30;1.87;;;27.60;72.40;;;;;;5071238;28;20451;-82
2022/06/11 11:58:37;;;;;;;7.23;2.20;;;27.70;71.80;;;;;;5072941;28;20416;-81
2022/06/11 12:01:08;;;;;;;2.30;1.83;;;27.80;72.70;;;;;;5072626;28;20459;-81
2022/06/11 12:03:47;;;;;;;1.83;1.77;;;27.80;71.80;;;;;;5074255;28;20995;-81
2022/06/11 12:06:16;;;;;;;4.20;1.93;;;27.80;72.10;;;;;;5071660;28;20440;-81
2022/06/11 12:08:49;;;;;;;2.70;2.03;;;27.80;71.20;;;;;;5072806;28;20449;-82
2022/06/11 12:11:24;;;;;;;2.17;1.80;;;27.90;71.00;;;;;;5072065;28;20393;-82
2022/06/11 12:13:59;;;;;;;6.20;2.10;;;27.90;70.90;;;;;;5073796;28;20986;-81
2022/06/11 12:16:27;;;;;;;7.17;2.13;;;27.90;71.40;;;;;;5056065;28;20437;-82
2022/06/11 12:18:57;;;;;;;13.47;3.00;;;28.00;71.60;;;;;;5072455;28;20412;-82
2022/06/11 12:21:32;;;;;;;2.80;2.27;;;28.10;72.50;;;;;;5071816;28;20409;-82
2022/06/11 12:24:03;;;;;;;4.50;2.20;;;28.30;73.00;;;;;;5071424;28;20417;-82
2022/06/11 12:26:34;;;;;;;5.57;2.23;;;28.30;71.30;;;;;;5072515;28;20433;-82
2022/06/11 12:29:02;;;;;;;2.83;2.10;;;28.10;70.20;;;;;;5074157;28;20481;-82
2022/06/11 12:31:29;;;;;;;6.20;2.47;;;28.00;70.90;;;;;;5071913;28;20497;-83
2022/06/11 12:33:55;;;;;;;4.40;2.07;;;27.80;71.30;;;;;;5070599;28;20413;-82
2022/06/11 12:36:42;;;;;;;6.60;2.00;;;27.60;71.40;;;;;;5071840;28;20744;-82
2022/06/11 12:39:36;;;;;;;4.17;2.30;;;27.40;71.50;;;;;;5071757;28;20460;-81
2022/06/11 12:42:21;;;;;;;5.33;2.23;;;27.30;71.70;;;;;;5071033;28;20819;-81
2022/06/11 12:44:56;;;;;;;4.20;2.17;;;27.10;72.90;;;;;;5071319;28;20401;-81
2022/06/11 12:47:33;;;;;;;5.30;2.60;;;27.20;71.90;;;;;;5070638;28;20466;-81
2022/06/11 12:50:21;;;;;;;5.03;2.47;;;27.40;71.90;;;;;;5070762;28;20423;-82
2022/06/11 12:53:17;;;;;;;4.50;2.13;;;27.60;71.00;;;;;;5069469;28;20406;-81
2022/06/11 12:56:06;;;;;;;7.57;2.50;;;27.70;70.90;;;;;;5069819;28;20413;-82
2022/06/11 12:58:54;;;;;;;2.80;1.83;;;27.80;72.00;;;;;;5070935;28;20417;-81
2022/06/11 13:01:25;;;;;;;3.73;2.10;;;27.90;71.30;;;;;;5069862;28;20425;-81
2022/06/11 13:04:13;;;;;;;5.37;2.30;;;27.80;71.00;;;;;;5071468;28;20433;-81
2022/06/11 13:06:53;;;;;;;3.03;2.50;;;27.70;71.30;;;;;;5071288;28;20467;-81
2022/06/11 13:09:19;;;;;;;4.70;2.20;;;27.70;72.20;;;;;;5070861;28;20523;-81
2022/06/11 13:12:09;;;;;;;4.43;2.37;;;27.90;71.60;;;;;;5069445;28;20966;-83
2022/06/11 13:14:46;;;;;;;3.23;1.80;;;28.10;70.80;;;;;;5070851;28;20181;-84
2022/06/11 13:17:49;;;;;;;3.73;2.30;;;28.10;70.60;;;;;;5070448;28;20520;-82
2022/06/11 13:20:21;;;;;;;5.13;2.07;;;28.20;71.10;;;;;;5070326;28;21031;-82
2022/06/11 13:23:12;;;;;;;2.30;2.00;;;28.20;70.20;;;;;;5072208;28;20921;-81
2022/06/11 13:25:52;;;;;;;3.47;2.07;;;28.10;71.10;;;;;;5070210;28;20457;-81
2022/06/11 13:28:42;;;;;;;8.57;2.30;;;28.00;71.30;;;;;;5070632;28;20465;-81
2022/06/11 13:31:16;;;;;;;3.70;2.80;;;27.80;71.80;;;;;;5072845;28;20405;-81
2022/06/11 13:34:05;;;;;;;4.03;1.97;;;27.80;72.20;;;;;;5074816;28;20794;-81
2022/06/11 13:36:56;;;;;;;2.50;1.90;;;27.70;72.00;;;;;;5061533;28;20425;-81
2022/06/11 13:39:32;;;;;;;7.50;2.10;;;27.50;71.80;;;;;;5095744;28;20427;-83
2022/06/11 13:42:00;;;;;;;4.33;1.93;;;27.40;72.40;;;;;;5092002;28;20821;-83
2022/06/11 13:44:38;;;;;;;2.90;2.10;;;27.20;72.60;;;;;;5089271;28;21200;-80
2022/06/11 13:47:24;;;;;;;4.07;2.20;;;27.20;72.90;;;;;;5089254;28;20444;-82
2022/06/11 13:50:16;;;;;;;2.37;2.17;;;27.30;72.50;;;;;;5097130;28;20421;-82
2022/06/11 13:56:33;;;;;;;3.87;2.13;;;28.00;72.80;;;;;;5096578;28;20443;-82
2022/06/11 13:59:18;;;;;;;3.50;2.30;;;28.40;73.50;;;;;;5085535;28;20417;-82